Terminal Aerodrome Forecast
Issued by NWS North Platte, NE

Home | Current Version | Previous Version | Graphics & Text | Print | Product List | Glossary On
Versions: 1 2 3 4 5 6 7 8 9 10 11 12 13 14 15 16 17 18 19
000
FTUS43 KLBF 251720
TAFVTN
TAF
KVTN 251720Z 2518/2618 17014KT P6SM SCT150
     FM260100 20007KT P6SM SCT120
     FM260900 VRB06KT 3SM BR SCT120
     FM261500 06007KT P6SM SCT200=

USA.gov is the U.S. government's official web portal to all federal, state and local government web resources and services.